Time;durP1;ratioP1;P1;durP2;ratioP2;P2;SDS_P1;SDS_P2;PMS_P1;PMS_P2;Temp;Humidity;BMP_temperature;BMP_pressure;BME280_temperature;BME280_humidity;BME280_pressure;Samples;Min_cycle;Max_cycle;Signal;HPM_P1;HPM_P2
2022/10/07 00:00:04;;;;;;;28.67;17.52;;;;;;;12.29;85.03;95905.02;1697880;84;21093;-50
2022/10/07 00:02:31;;;;;;;31.68;17.30;;;;;;;12.23;85.37;95903.98;1698299;83;21524;-50
2022/10/07 00:04:58;;;;;;;34.23;17.45;;;;;;;12.19;85.75;95897.78;1675996;85;21146;-50
2022/10/07 00:07:26;;;;;;;27.00;16.17;;;;;;;12.22;86.18;95906.58;1689651;85;21016;-50
2022/10/07 00:09:53;;;;;;;25.02;16.00;;;;;;;12.28;86.39;95897.95;1689785;83;21264;-49
2022/10/07 00:12:19;;;;;;;29.32;16.27;;;;;;;12.37;86.44;95900.91;1689359;85;21070;-50
2022/10/07 00:14:47;;;;;;;29.45;15.72;;;;;;;12.41;86.16;95897.45;1689729;85;20981;-53
2022/10/07 00:17:14;;;;;;;26.50;16.15;;;;;;;12.44;86.27;95894.44;1671594;84;20990;-50
2022/10/07 00:19:42;;;;;;;29.30;16.80;;;;;;;12.45;85.97;95896.75;1689806;85;21018;-49
2022/10/07 00:22:08;;;;;;;29.60;16.42;;;;;;;12.45;85.77;95894.61;1689537;85;21167;-54
2022/10/07 00:24:36;;;;;;;30.35;15.80;;;;;;;12.45;85.75;95887.72;1689510;83;21046;-49
2022/10/07 00:27:04;;;;;;;25.60;15.50;;;;;;;12.45;85.63;95894.61;1689600;84;21093;-50
2022/10/07 00:29:31;;;;;;;28.42;16.05;;;;;;;12.43;85.59;95883.99;1689767;85;21017;-49
2022/10/07 00:31:57;;;;;;;28.65;15.20;;;;;;;12.40;85.80;95882.69;1671665;85;21043;-49
2022/10/07 00:34:24;;;;;;;28.30;15.53;;;;;;;12.41;85.90;95885.03;1689712;84;21254;-49
2022/10/07 00:36:51;;;;;;;26.50;14.47;;;;;;;12.42;86.10;95880.30;1689852;85;21057;-49
2022/10/07 00:39:17;;;;;;;28.23;15.68;;;;;;;12.48;86.25;95879.33;1689512;84;20962;-49
2022/10/07 00:41:49;;;;;;;29.15;16.32;;;;;;;12.51;86.12;95883.22;1689953;84;21431;-48
2022/10/07 00:44:41;;;;;;;27.60;17.02;;;;;;;12.53;86.11;95879.59;1689808;85;20986;-49
2022/10/07 00:47:29;;;;;;;;;;;;;;;12.55;86.16;95873.65;1692262;84;21498;-50
2022/10/07 00:50:18;;;;;;;39.23;15.60;;;;;;;12.56;85.92;95880.72;1684234;85;20155;-50
2022/10/07 00:52:56;;;;;;;24.35;12.43;;;;;;;12.51;85.96;95877.11;1684319;85;20983;-50
2022/10/07 00:55:26;;;;;;;31.25;14.90;;;;;;;12.48;85.93;95871.05;1684420;85;21058;-49
2022/10/07 00:57:56;;;;;;;24.87;15.43;;;;;;;12.46;86.05;95871.32;1684665;85;20983;-50
2022/10/07 01:00:23;;;;;;;35.10;16.93;;;;;;;12.46;86.13;95870.70;1684574;84;21271;-50
2022/10/07 01:02:51;;;;;;;30.40;14.73;;;;;;;12.46;86.07;95873.46;1684122;85;20994;-51
2022/10/07 01:05:18;;;;;;;24.70;13.32;;;;;;;12.46;86.11;95873.46;1687533;84;21132;-50
2022/10/07 01:07:48;;;;;;;22.42;13.38;;;;;;;12.46;86.19;95872.70;1696545;84;20970;-50
2022/10/07 01:10:18;;;;;;;20.37;13.35;;;;;;;12.45;86.32;95872.53;1696399;84;20986;-49
2022/10/07 01:12:58;;;;;;;23.02;12.43;;;;;;;12.45;86.28;95875.30;1696449;84;21876;-50
2022/10/07 01:16:01;;;;;;;17.00;10.40;;;;;;;12.42;86.34;95872.02;1695699;84;21033;-51
2022/10/07 01:18:40;;;;;;;19.00;10.38;;;;;;;12.41;86.58;95867.09;1696529;84;21545;-49
2022/10/07 01:21:47;;;;;;;16.40;9.90;;;;;;;12.36;86.71;95870.37;1696809;84;21164;-50
2022/10/07 01:24:25;;;;;;;13.93;9.68;;;;;;;12.34;86.92;95868.66;1696487;84;20998;-50
2022/10/07 01:27:04;;;;;;;18.48;10.35;;;;;;;12.37;87.24;95866.41;1698054;84;21312;-51
2022/10/07 01:29:54;;;;;;;16.75;10.25;;;;;;;12.41;86.93;95871.23;1701704;83;21106;-50
2022/10/07 01:32:30;;;;;;;16.02;9.80;;;;;;;12.44;87.10;95870.98;1701771;84;20960;-49
2022/10/07 01:34:57;;;;;;;23.00;10.65;;;;;;;12.48;86.92;95863.38;1701905;84;21511;-50
2022/10/07 01:37:29;;;;;;;18.73;11.25;;;;;;;12.47;86.73;95859.08;1701647;84;21034;-50
2022/10/07 01:39:58;;;;;;;15.55;10.18;;;;;;;12.43;86.90;95855.63;1701812;84;21772;-50
2022/10/07 01:42:27;;;;;;;21.90;11.63;;;;;;;12.41;86.90;95862.95;1701938;83;21012;-50
2022/10/07 01:44:56;;;;;;;17.45;10.10;;;;;;;12.40;87.09;95858.64;1701742;84;21436;-49
2022/10/07 01:47:26;;;;;;;17.20;11.15;;;;;;;12.43;87.13;95857.01;1701971;83;21074;-51
2022/10/07 01:49:53;;;;;;;16.07;10.35;;;;;;;12.43;87.15;95860.53;1701780;84;21101;-50
2022/10/07 01:53:01;;;;;;;16.37;10.10;;;;;;;12.40;87.26;95855.09;1701668;83;21146;-49
2022/10/07 01:56:00;;;;;;;16.75;9.75;;;;;;;12.39;87.49;95856.30;1701784;84;21259;-50
2022/10/07 01:58:52;;;;;;;19.90;9.80;;;;;;;12.38;87.62;95855.53;1701072;84;21030;-50
2022/10/07 02:01:49;;;;;;;15.78;9.58;;;;;;;12.43;87.65;95849.48;1702057;84;21110;-49
2022/10/07 02:04:42;;;;;;;17.80;10.40;;;;;;;12.45;87.71;95844.31;1699143;84;20979;-49
2022/10/07 02:07:54;;;;;;;21.75;11.15;;;;;;;12.49;87.80;95847.75;1698872;84;21984;-50
2022/10/07 02:10:37;;;;;;;19.73;12.60;;;;;;;12.53;87.72;95846.46;1664554;86;21144;-50
2022/10/07 02:13:12;;;;;;;20.30;12.88;;;;;;;12.58;87.39;95837.68;1664388;86;21049;-51
2022/10/07 02:16:01;;;;;;;29.48;12.85;;;;;;;12.58;86.99;95847.34;1686776;84;21123;-50
2022/10/07 02:18:30;;;;;;;22.62;11.65;;;;;;;12.59;87.04;95846.72;1699089;84;21058;-50
2022/10/07 02:20:57;;;;;;;19.98;10.15;;;;;;;12.54;86.82;95848.63;1699114;84;21243;-50
2022/10/07 02:23:24;;;;;;;21.30;11.33;;;;;;;12.46;86.95;95854.14;1678927;84;21091;-50
2022/10/07 02:25:52;;;;;;;23.00;11.95;;;;;;;12.35;87.16;95847.34;1699122;84;21113;-50
2022/10/07 02:28:22;;;;;;;21.77;10.28;;;;;;;12.29;87.71;95851.21;1678859;84;21054;-49
2022/10/07 02:30:54;;;;;;;19.10;10.03;;;;;;;12.33;87.94;95850.55;1679058;84;21046;-49
2022/10/07 02:33:23;;;;;;;24.37;11.15;;;;;;;12.31;87.98;95851.58;1699334;84;21202;-50
2022/10/07 02:35:57;;;;;;;20.68;10.75;;;;;;;12.28;88.11;95848.28;1698884;84;21011;-50
2022/10/07 02:38:25;;;;;;;16.00;9.20;;;;;;;12.27;88.31;95848.73;1679396;84;21122;-50
2022/10/07 02:41:14;;;;;;;22.00;10.23;;;;;;;12.22;88.33;95845.88;1698881;84;21023;-48
2022/10/07 02:43:52;;;;;;;21.20;9.73;;;;;;;12.21;88.71;95847.67;1698913;84;21023;-49
2022/10/07 02:46:26;;;;;;;16.27;9.43;;;;;;;12.25;88.75;95857.42;1698902;84;21305;-49
2022/10/07 02:49:05;;;;;;;19.35;10.28;;;;;;;12.26;88.64;95852.70;1698857;84;21419;-50
2022/10/07 02:51:39;;;;;;;17.35;9.38;;;;;;;12.28;88.85;95851.04;1698630;84;21038;-50
2022/10/07 02:54:06;;;;;;;22.42;9.78;;;;;;;12.33;89.00;95854.69;1698768;84;20988;-50
2022/10/07 02:56:35;;;;;;;18.92;10.72;;;;;;;12.38;88.79;95849.23;1664965;85;20955;-51
2022/10/07 02:59:03;;;;;;;17.23;11.55;;;;;;;12.39;88.65;95851.57;1698490;84;21141;-50
2022/10/07 03:01:34;;;;;;;24.30;10.90;;;;;;;12.39;88.84;95844.67;1698658;84;21125;-50
2022/10/07 03:04:01;;;;;;;35.85;10.93;;;;;;;12.43;88.76;95845.97;1698920;84;21011;-51
2022/10/07 03:06:29;;;;;;;20.90;11.10;;;;;;;12.45;88.38;95852.59;1698723;82;21015;-50
2022/10/07 03:08:59;;;;;;;20.30;12.68;;;;;;;12.48;88.32;95854.48;1699044;84;21420;-50
2022/10/07 03:11:26;;;;;;;29.57;16.73;;;;;;;12.55;88.11;95852.95;1698642;84;21174;-50
2022/10/07 03:13:53;;;;;;;27.75;15.55;;;;;;;12.51;87.52;95850.88;1698654;84;20999;-50
2022/10/07 03:16:20;;;;;;;21.00;14.55;;;;;;;12.46;87.86;95847.86;1698808;84;21102;-50
2022/10/07 03:18:49;;;;;;;22.90;14.60;;;;;;;12.43;88.03;95855.63;1698951;84;21061;-49
2022/10/07 03:21:18;;;;;;;32.05;20.75;;;;;;;12.42;88.19;95847.18;1697467;84;20952;-53
2022/10/07 03:23:51;;;;;;;24.98;16.52;;;;;;;12.43;88.37;95848.73;1698783;84;21182;-52
2022/10/07 03:26:18;;;;;;;26.70;13.28;;;;;;;12.42;88.14;95849.32;1698730;84;21023;-50
2022/10/07 03:28:47;;;;;;;22.73;11.73;;;;;;;12.40;88.29;95838.53;1698794;84;21019;-50
2022/10/07 03:31:14;;;;;;;21.40;12.23;;;;;;;12.40;88.57;95835.18;1698752;84;21003;-54
2022/10/07 03:33:42;;;;;;;17.85;11.75;;;;;;;12.41;88.43;95843.62;1698392;84;21030;-49
2022/10/07 03:36:09;;;;;;;19.32;12.40;;;;;;;12.38;88.44;95842.33;1698505;84;21182;-51
2022/10/07 03:38:37;;;;;;;20.70;12.43;;;;;;;12.30;88.52;95847.24;1698564;84;21106;-50
2022/10/07 03:41:05;;;;;;;20.43;11.30;;;;;;;12.24;88.70;95842.70;1698295;84;20991;-50
2022/10/07 03:43:32;;;;;;;32.10;20.30;;;;;;;12.23;89.12;95846.05;1698834;84;21070;-50
2022/10/07 03:46:01;;;;;;;26.82;16.42;;;;;;;12.28;89.29;95846.14;1678917;84;21074;-50
2022/10/07 03:48:29;;;;;;;40.28;15.32;;;;;;;12.30;89.19;95847.24;1698955;84;21477;-50
2022/10/07 03:50:57;;;;;;;20.37;13.53;;;;;;;12.31;89.21;95843.30;1698721;84;20976;-49
2022/10/07 03:53:27;;;;;;;25.15;16.05;;;;;;;12.32;88.88;95843.47;1698440;84;21546;-50
2022/10/07 03:55:54;;;;;;;25.85;14.87;;;;;;;12.27;88.83;95838.45;1699314;84;20975;-49
2022/10/07 03:58:22;;;;;;;30.17;13.30;;;;;;;12.24;88.93;95840.70;1698877;84;21078;-49
2022/10/07 04:00:49;;;;;;;24.50;15.00;;;;;;;12.20;89.26;95840.02;1698942;84;21153;-49
2022/10/07 04:03:17;;;;;;;24.40;12.73;;;;;;;12.20;89.41;95833.70;1698819;84;21442;-49
2022/10/07 04:05:58;;;;;;;19.67;12.58;;;;;;;12.19;89.53;95836.30;1698944;82;21550;-49
2022/10/07 04:08:30;;;;;;;17.52;12.20;;;;;;;12.17;89.65;95836.74;1703387;84;21015;-49
2022/10/07 04:10:57;;;;;;;20.70;13.78;;;;;;;12.14;89.53;95831.30;1703727;84;20975;-51
2022/10/07 04:13:24;;;;;;;35.80;17.00;;;;;;;12.11;89.64;95826.03;1703381;84;21143;-50
2022/10/07 04:15:51;;;;;;;23.25;14.47;;;;;;;12.11;90.02;95828.78;1673611;84;21011;-53
2022/10/07 04:18:21;;;;;;;24.37;14.87;;;;;;;12.17;90.55;95822.95;1703467;84;21094;-53
2022/10/07 04:20:49;;;;;;;28.55;14.20;;;;;;;12.25;90.50;95828.45;1703587;84;21537;-51
2022/10/07 04:23:16;;;;;;;70.35;16.37;;;;;;;12.27;90.21;95821.14;1703443;84;21455;-49
2022/10/07 04:25:44;;;;;;;30.17;14.03;;;;;;;12.28;90.07;95825.45;1703554;84;22071;-53
2022/10/07 04:28:23;;;;;;;26.82;14.47;;;;;;;12.31;90.05;95829.50;1702531;84;21065;-51
2022/10/07 04:30:52;;;;;;;23.10;14.65;;;;;;;12.35;90.09;95829.40;1672893;84;21009;-54
2022/10/07 04:33:22;;;;;;;26.80;15.25;;;;;;;12.42;90.00;95823.09;1702580;82;22249;-50
2022/10/07 04:35:50;;;;;;;29.55;15.58;;;;;;;12.43;89.81;95816.37;1702642;84;21057;-51
2022/10/07 04:38:17;;;;;;;27.30;14.25;;;;;;;12.45;89.76;95818.71;1702416;82;21242;-50
2022/10/07 04:40:47;;;;;;;24.07;12.23;;;;;;;12.49;89.79;95818.77;1702296;84;21013;-50
2022/10/07 04:43:26;;;;;;;31.20;14.13;;;;;;;12.55;89.90;95823.95;1702715;84;21091;-49
2022/10/07 04:46:05;;;;;;;24.47;13.15;;;;;;;12.62;89.74;95815.48;1674470;84;20962;-54
2022/10/07 04:48:32;;;;;;;26.87;13.60;;;;;;;12.62;89.20;95819.03;1702524;84;21057;-52
2022/10/07 04:51:01;;;;;;;22.87;11.88;;;;;;;12.56;89.03;95812.47;1702633;84;21154;-51
2022/10/07 04:53:28;;;;;;;20.88;11.93;;;;;;;12.52;89.03;95815.76;1702161;82;21446;-50
2022/10/07 04:55:55;;;;;;;24.95;12.85;;;;;;;12.53;89.22;95812.58;1702573;84;21517;-53
2022/10/07 04:58:23;;;;;;;39.58;13.43;;;;;;;12.54;89.17;95819.65;1702519;84;21061;-50
2022/10/07 05:00:51;;;;;;;37.25;15.08;;;;;;;12.49;89.22;95816.63;1702650;84;21508;-49
2022/10/07 05:03:20;;;;;;;22.30;11.55;;;;;;;12.48;89.42;95821.36;1702721;84;21135;-50
2022/10/07 05:05:50;;;;;;;38.02;14.13;;;;;;;12.48;89.30;95824.73;1702319;84;20961;-50
2022/10/07 05:08:21;;;;;;;45.70;15.90;;;;;;;12.44;89.03;95829.58;1702348;82;21052;-49
2022/10/07 05:10:50;;;;;;;32.67;15.15;;;;;;;12.38;89.41;95827.94;1702622;84;21099;-49
2022/10/07 05:13:18;;;;;;;30.82;15.53;;;;;;;12.35;89.54;95832.95;1651670;84;21055;-49
2022/10/07 05:15:52;;;;;;;27.87;16.62;;;;;;;12.31;89.78;95834.23;1702527;84;21156;-49
2022/10/07 05:18:20;;;;;;;31.30;16.55;;;;;;;12.24;89.98;95838.56;1673051;84;21064;-50
2022/10/07 05:20:48;;;;;;;37.80;16.25;;;;;;;12.20;90.32;95833.70;1702501;84;21210;-50
2022/10/07 05:23:18;;;;;;;25.95;15.65;;;;;;;12.20;90.75;95840.02;1702510;84;21437;-50
2022/10/07 05:25:45;;;;;;;30.57;16.52;;;;;;;12.25;91.22;95842.25;1702529;84;21434;-51
2022/10/07 05:28:14;;;;;;;28.00;15.78;;;;;;;12.31;91.44;95842.52;1703208;84;22206;-51
2022/10/07 05:30:41;;;;;;;21.90;14.95;;;;;;;12.33;91.30;95849.75;1703360;84;21518;-51
2022/10/07 05:33:10;;;;;;;34.05;16.00;;;;;;;12.29;91.33;95853.97;1673975;84;21059;-51
2022/10/07 05:35:38;;;;;;;22.00;14.13;;;;;;;12.25;91.52;95854.66;1673856;84;21024;-50
2022/10/07 05:38:07;;;;;;;19.75;12.95;;;;;;;12.27;91.50;95852.25;1651616;82;21017;-51
2022/10/07 05:40:34;;;;;;;32.95;16.65;;;;;;;12.28;91.35;95855.18;1726908;81;21171;-51
2022/10/07 05:43:04;;;;;;;35.48;18.23;;;;;;;12.28;91.52;95854.42;1703201;83;21419;-50
2022/10/07 05:45:31;;;;;;;30.20;15.38;;;;;;;12.28;91.93;95859.94;1682159;82;21063;-51
2022/10/07 05:47:59;;;;;;;29.27;14.43;;;;;;;12.26;92.17;95857.59;1709047;82;21023;-53
2022/10/07 05:50:26;;;;;;;22.30;14.13;;;;;;;12.25;92.41;95862.18;1701135;82;21194;-51
2022/10/07 05:52:53;;;;;;;26.25;13.18;;;;;;;12.27;92.28;95865.28;1675621;82;21173;-58
2022/10/07 05:55:20;;;;;;;24.87;14.83;;;;;;;12.28;92.33;95866.83;1675061;82;21569;-54
2022/10/07 05:57:47;;;;;;;33.83;19.32;;;;;;;12.28;92.53;95870.35;1707724;82;21046;-56
2022/10/07 06:00:15;;;;;;;38.35;21.15;;;;;;;12.26;92.71;95865.88;1711450;82;21042;-51
2022/10/07 06:02:44;;;;;;;26.12;16.17;;;;;;;12.24;92.67;95867.53;1712234;82;21073;-50
2022/10/07 06:05:11;;;;;;;44.98;23.90;;;;;;;12.21;93.00;95870.53;1708898;82;21206;-57
2022/10/07 06:07:39;;;;;;;34.45;23.10;;;;;;;12.19;93.13;95871.57;1691854;82;21547;-51
2022/10/07 06:13:08;;;;;;;31.97;20.25;;;;;;;12.18;93.90;95874.16;1698245;83;21149;-51
2022/10/07 06:15:36;;;;;;;54.30;32.65;;;;;;;12.22;94.35;95880.36;1678788;83;21079;-53
2022/10/07 06:18:05;;;;;;;35.63;23.62;;;;;;;12.23;94.41;95883.91;1691372;83;22298;-52
2022/10/07 06:20:33;;;;;;;40.50;23.52;;;;;;;12.25;94.50;95878.12;1687575;83;21551;-53
2022/10/07 06:23:00;;;;;;;30.68;23.60;;;;;;;12.27;94.49;95875.70;1680231;83;21595;-51
2022/10/07 06:25:27;;;;;;;24.72;17.48;;;;;;;12.31;94.81;95873.66;1684210;83;21044;-52
2022/10/07 06:27:56;;;;;;;28.52;21.85;;;;;;;12.34;94.60;95876.14;1694554;83;21099;-51
2022/10/07 06:30:24;;;;;;;31.52;19.87;;;;;;;12.38;94.85;95876.23;1698664;83;21280;-51
2022/10/07 06:32:51;;;;;;;30.32;19.17;;;;;;;12.46;94.57;95876.84;1683381;83;21023;-51
2022/10/07 06:35:20;;;;;;;31.00;23.85;;;;;;;12.43;93.92;95882.61;1685129;83;22393;-51
2022/10/07 06:37:47;;;;;;;34.73;22.22;;;;;;;12.38;94.00;95885.11;1693804;83;21112;-53
2022/10/07 06:40:14;;;;;;;43.68;30.10;;;;;;;12.40;94.13;95882.09;1690480;83;21012;-51
2022/10/07 06:42:42;;;;;;;30.55;23.05;;;;;;;12.42;94.16;95883.82;1653484;84;21256;-50
2022/10/07 06:45:27;;;;;;;30.40;22.15;;;;;;;12.43;94.06;95892.89;1663942;84;21051;-53
2022/10/07 06:47:53;;;;;;;37.20;25.17;;;;;;;12.42;94.09;95892.09;1685426;84;21392;-52
2022/10/07 06:50:21;;;;;;;36.15;25.40;;;;;;;12.44;94.13;95893.82;1648683;84;21048;-49
2022/10/07 06:52:48;;;;;;;32.53;24.60;;;;;;;12.47;94.28;95890.19;1700230;83;21003;-51
2022/10/07 06:55:16;;;;;;;38.63;24.72;;;;;;;12.51;94.27;95893.67;1661462;83;21210;-51
2022/10/07 06:57:44;;;;;;;30.80;22.67;;;;;;;12.52;94.15;95888.31;1697278;83;21539;-51
2022/10/07 07:00:13;;;;;;;26.85;17.70;;;;;;;12.55;94.04;95886.06;1692115;83;21412;-54
2022/10/07 07:02:40;;;;;;;26.73;17.75;;;;;;;12.62;93.95;95883.13;1697999;83;21040;-52
2022/10/07 07:05:08;;;;;;;26.82;19.48;;;;;;;12.67;93.68;95882.59;1693830;83;21083;-51
2022/10/07 07:07:37;;;;;;;28.30;18.40;;;;;;;12.69;93.48;95886.48;1696021;82;22538;-50
2022/10/07 07:10:05;;;;;;;24.95;18.20;;;;;;;12.75;93.34;95888.89;1709891;82;21062;-51
2022/10/07 07:12:33;;;;;;;23.55;17.90;;;;;;;12.77;92.79;95879.59;1705713;82;21004;-52
2022/10/07 07:15:03;;;;;;;23.00;13.55;;;;;;;12.79;92.60;95881.31;1705352;82;21125;-52
2022/10/07 07:17:31;;;;;;;15.40;13.05;;;;;;;12.80;92.38;95875.95;1708771;82;21609;-50
2022/10/07 07:19:57;;;;;;;20.45;13.35;;;;;;;12.83;92.32;95879.23;1681302;83;21513;-50
2022/10/07 07:22:25;;;;;;;20.60;15.50;;;;;;;12.86;92.29;95878.97;1704585;82;21049;-51
2022/10/07 07:24:52;;;;;;;23.12;14.03;;;;;;;12.87;91.86;95877.77;1705799;82;21083;-53
2022/10/07 07:27:20;;;;;;;21.25;14.63;;;;;;;12.85;91.81;95884.30;1693940;83;21105;-53
2022/10/07 07:29:49;;;;;;;19.27;13.80;;;;;;;12.85;92.29;95878.77;1709888;82;21079;-49
2022/10/07 07:32:16;;;;;;;25.27;14.98;;;;;;;12.90;92.57;95878.27;1712985;82;21270;-50
2022/10/07 07:34:44;;;;;;;23.62;17.48;;;;;;;12.95;92.71;95883.29;1677806;83;20859;-50
2022/10/07 07:37:13;;;;;;;25.30;17.12;;;;;;;12.99;93.25;95883.97;1669424;82;21066;-51
2022/10/07 07:39:43;;;;;;;23.32;16.52;;;;;;;13.07;93.05;95883.34;1702954;83;21066;-51
2022/10/07 07:42:12;;;;;;;21.60;17.25;;;;;;;13.14;92.57;95880.41;1713862;81;21046;-52
2022/10/07 07:44:40;;;;;;;24.32;18.15;;;;;;;13.18;92.46;95877.53;1683984;82;21794;-52
2022/10/07 07:47:08;;;;;;;20.43;15.60;;;;;;;13.25;92.48;95879.50;1722287;81;20971;-52
2022/10/07 07:49:37;;;;;;;23.27;16.07;;;;;;;13.30;91.87;95883.09;1685158;83;21058;-54
2022/10/07 07:52:05;;;;;;;20.57;15.28;;;;;;;13.33;91.79;95889.75;1703859;82;21013;-54
2022/10/07 07:54:36;;;;;;;25.65;15.75;;;;;;;13.34;91.16;95891.30;1682510;82;21085;-52
2022/10/07 07:57:03;;;;;;;27.25;14.95;;;;;;;13.33;91.08;95888.38;1698257;83;21182;-51
2022/10/07 07:59:31;;;;;;;16.15;12.47;;;;;;;13.38;91.03;95885.06;1709073;82;21525;-53
2022/10/07 08:01:59;;;;;;;21.97;14.65;;;;;;;13.38;90.90;95879.53;1712671;82;21040;-52
2022/10/07 08:04:25;;;;;;;19.40;13.68;;;;;;;13.42;90.73;95884.38;1723788;82;21106;-51
2022/10/07 08:06:54;;;;;;;21.10;13.03;;;;;;;13.47;90.37;95879.06;1709872;82;21904;-55
2022/10/07 08:09:22;;;;;;;19.95;13.85;;;;;;;13.47;90.35;95875.55;1682510;83;22039;-52
2022/10/07 08:11:50;;;;;;;23.55;15.30;;;;;;;13.53;90.29;95880.69;1707830;82;21079;-53
2022/10/07 08:14:21;;;;;;;23.73;14.50;;;;;;;13.60;89.79;95879.13;1705922;82;21122;-52
2022/10/07 08:16:50;;;;;;;21.17;14.95;;;;;;;13.64;89.74;95877.78;1708735;82;21481;-53
2022/10/07 08:19:18;;;;;;;23.65;17.10;;;;;;;13.72;89.92;95870.06;1713188;82;20962;-51
2022/10/07 08:21:46;;;;;;;26.97;18.50;;;;;;;13.75;89.49;95872.73;1697337;82;21224;-53
2022/10/07 08:24:16;;;;;;;30.30;20.57;;;;;;;13.79;89.39;95873.39;1706522;82;21567;-57
2022/10/07 08:26:46;;;;;;;28.65;19.95;;;;;;;13.83;89.01;95871.91;1689665;82;21504;-52
2022/10/07 08:29:14;;;;;;;24.05;18.37;;;;;;;13.87;88.75;95867.83;1691126;82;21057;-52
2022/10/07 08:31:42;;;;;;;26.27;17.55;;;;;;;13.97;88.51;95871.49;1681273;84;21117;-53
2022/10/07 08:34:09;;;;;;;26.73;14.95;;;;;;;14.03;88.30;95869.09;1648566;86;21254;-51
2022/10/07 08:36:37;;;;;;;18.52;14.33;;;;;;;14.03;88.05;95866.95;1669438;84;21105;-51
2022/10/07 08:39:04;;;;;;;17.57;14.00;;;;;;;14.04;87.80;95871.27;1666059;84;21101;-54
2022/10/07 08:41:58;;;;;;;19.05;14.43;;;;;;;14.07;87.67;95869.78;1695364;83;21072;-53
2022/10/07 08:44:39;;;;;;;19.75;13.72;;;;;;;14.15;87.70;95860.66;1698246;82;22271;-55
2022/10/07 08:47:37;;;;;;;22.37;13.90;;;;;;;14.28;87.75;95858.08;1715901;82;21195;-53
2022/10/07 08:50:20;;;;;;;17.85;12.35;;;;;;;14.39;86.86;95863.27;1721838;83;21081;-53
2022/10/07 08:53:04;;;;;;;19.42;13.32;;;;;;;14.42;86.56;95861.78;1707033;82;21616;-50
2022/10/07 08:55:52;;;;;;;17.80;13.40;;;;;;;14.43;86.29;95861.31;1716810;82;21009;-51
2022/10/07 08:58:48;;;;;;;40.28;22.35;;;;;;;14.54;86.33;95854.84;1718258;82;21079;-51
2022/10/07 09:01:33;;;;;;;48.73;27.77;;;;;;;14.67;86.12;95858.97;1703347;82;21310;-53
2022/10/07 09:04:18;;;;;;;61.10;30.97;;;;;;;14.75;86.05;95858.28;1717645;82;21048;-53
2022/10/07 09:06:53;;;;;;;16.25;11.85;;;;;;;14.86;85.87;95850.39;1687948;83;21107;-51
2022/10/07 09:09:44;;;;;;;13.98;9.83;;;;;;;14.95;85.51;95851.84;1689487;82;21078;-51
2022/10/07 09:12:21;;;;;;;24.40;19.73;;;;;;;15.03;84.96;95850.37;1697648;83;21004;-54
2022/10/07 09:14:52;;;;;;;44.42;38.00;;;;;;;15.11;84.89;95848.13;1668423;83;21164;-52
2022/10/07 09:17:27;;;;;;;46.75;39.03;;;;;;;15.17;84.78;95848.48;1669262;84;21070;-50
2022/10/07 09:19:59;;;;;;;30.15;21.20;;;;;;;15.27;84.43;95845.17;1681066;83;21106;-53
2022/10/07 09:22:35;;;;;;;22.98;16.50;;;;;;;15.41;84.58;95841.93;1697795;83;21160;-52
2022/10/07 09:25:21;;;;;;;24.60;18.87;;;;;;;15.52;83.90;95843.08;1699469;83;21954;-53
2022/10/07 09:27:50;;;;;;;27.80;21.12;;;;;;;15.62;83.51;95841.14;1684414;83;20972;-51
2022/10/07 09:30:21;;;;;;;27.10;22.80;;;;;;;15.76;83.06;95835.83;1682193;83;21107;-52
2022/10/07 09:32:55;;;;;;;30.05;23.27;;;;;;;15.92;82.96;95830.06;1680293;83;21117;-54
2022/10/07 09:35:25;;;;;;;26.25;20.10;;;;;;;16.04;81.80;95836.73;1680032;83;21157;-52
2022/10/07 09:37:59;;;;;;;23.12;18.50;;;;;;;16.11;81.55;95833.70;1687344;83;21519;-51
2022/10/07 09:41:29;;;;;;;24.10;17.90;;;;;;;16.23;80.92;95836.38;1668028;83;21086;-51
2022/10/07 09:43:12;;;;;;;24.03;18.57;;;;;;;16.38;80.15;95838.78;1682355;83;21100;-50
2022/10/07 09:45:44;;;;;;;24.40;19.65;;;;;;;16.47;79.59;95831.25;1679618;83;21043;-54
2022/10/07 09:48:27;;;;;;;12.73;10.28;;;;;;;16.55;79.05;95827.56;1682548;83;21053;-51
2022/10/07 09:51:15;;;;;;;12.70;9.95;;;;;;;16.69;78.46;95826.98;1688997;82;21055;-52
2022/10/07 09:54:00;;;;;;;14.00;10.63;;;;;;;16.81;77.74;95827.45;1692193;83;21167;-51
2022/10/07 09:56:39;;;;;;;15.53;8.65;;;;;;;16.87;77.94;95824.23;1694182;83;21083;-54
2022/10/07 09:59:28;;;;;;;12.65;9.63;;;;;;;17.01;77.52;95818.05;1679283;83;21542;-55
2022/10/07 10:02:15;;;;;;;8.53;6.80;;;;;;;17.08;77.12;95821.93;1688592;83;21053;-51
2022/10/07 10:04:51;;;;;;;10.18;8.18;;;;;;;17.13;76.36;95819.91;1691197;83;21119;-51
2022/10/07 10:07:36;;;;;;;11.57;7.60;;;;;;;17.23;76.56;95814.49;1678477;83;21943;-51
2022/10/07 10:10:25;;;;;;;13.32;8.45;;;;;;;17.42;76.15;95814.05;1642626;84;21055;-51
2022/10/07 10:12:56;;;;;;;11.25;7.10;;;;;;;17.67;76.32;95807.38;1718673;82;21083;-51
2022/10/07 10:15:39;;;;;;;10.23;8.38;;;;;;;18.01;76.48;95800.02;1683836;82;21137;-51
2022/10/07 10:18:38;;;;;;;11.33;8.13;;;;;;;18.22;75.57;95799.75;1716580;82;21077;-50
2022/10/07 10:21:28;;;;;;;11.75;10.00;;;;;;;18.46;74.91;95799.98;1722511;82;21061;-52
2022/10/07 10:24:00;;;;;;;14.30;11.35;;;;;;;18.73;73.85;95797.66;1717122;82;21509;-50
2022/10/07 10:26:41;;;;;;;19.70;12.50;;;;;;;19.21;73.52;95794.37;1682198;84;21238;-51
2022/10/07 10:29:41;;;;;;;39.48;14.93;;;;;;;19.92;71.96;95794.93;1670647;81;21108;-52
2022/10/07 10:32:29;;;;;;;12.90;9.35;;;;;;;20.86;69.96;95781.19;1710586;81;21078;-54
2022/10/07 10:35:30;;;;;;;8.23;6.97;;;;;;;21.96;65.49;95783.05;1722462;82;21569;-54
2022/10/07 10:38:15;;;;;;;18.82;7.22;;;;;;;22.87;62.97;95782.86;1720617;82;21046;-51
2022/10/07 10:41:04;;;;;;;11.68;6.15;;;;;;;23.63;59.45;95783.70;1714255;82;21168;-56
2022/10/07 10:43:59;;;;;;;9.40;4.90;;;;;;;23.79;57.00;95778.11;1660187;85;21049;-55
2022/10/07 10:46:58;;;;;;;12.63;5.28;;;;;;;23.83;56.09;95775.87;1672457;82;21086;-54
2022/10/07 10:50:09;;;;;;;17.27;6.12;;;;;;;24.01;55.91;95769.75;1724097;82;21288;-54
2022/10/07 10:52:51;;;;;;;48.33;8.10;;;;;;;24.44;54.05;95771.02;1710549;82;21144;-57
2022/10/07 10:55:55;;;;;;;10.70;5.47;;;;;;;25.06;54.14;95764.13;1701006;82;20987;-54
2022/10/07 10:58:43;;;;;;;8.33;5.58;;;;;;;25.47;51.37;95760.03;1709582;82;21069;-54
2022/10/07 11:01:33;;;;;;;6.58;5.53;;;;;;;25.83;50.97;95755.98;1704703;82;21154;-53
2022/10/07 11:04:06;;;;;;;18.05;7.87;;;;;;;26.09;50.30;95748.63;1723925;82;21236;-56
2022/10/07 11:06:35;;;;;;;12.15;6.28;;;;;;;26.28;49.40;95753.73;1713525;82;21053;-51
2022/10/07 11:09:02;;;;;;;12.73;4.58;;;;;;;26.44;48.78;95749.98;1714593;82;21066;-55
2022/10/07 11:11:29;;;;;;;11.93;4.05;;;;;;;26.29;48.43;95746.80;1686295;83;21010;-52
2022/10/07 11:14:06;;;;;;;10.08;3.92;;;;;;;25.90;47.76;95736.47;1705444;83;21075;-56
2022/10/07 11:16:51;;;;;;;8.00;4.62;;;;;;;25.49;47.66;95741.30;1701197;83;21174;-54
2022/10/07 11:19:30;;;;;;;12.55;4.85;;;;;;;24.79;48.56;95740.28;1705850;83;21098;-52
2022/10/07 11:21:58;;;;;;;6.55;4.42;;;;;;;23.92;50.27;95737.66;1711503;83;21067;-51
2022/10/07 11:24:39;;;;;;;6.00;3.52;;;;;;;23.32;51.86;95733.30;1707543;83;21023;-56
2022/10/07 11:27:17;;;;;;;7.90;4.60;;;;;;;22.85;52.45;95727.11;1706479;83;21086;-52
2022/10/07 11:30:07;;;;;;;10.53;8.95;;;;;;;22.43;53.81;95726.49;1704679;83;21164;-53
2022/10/07 11:33:03;;;;;;;11.08;5.20;;;;;;;22.03;54.64;95716.89;1692905;83;20970;-54
2022/10/07 11:35:38;;;;;;;33.83;6.97;;;;;;;21.62;55.73;95720.97;1691401;83;21077;-54
2022/10/07 11:38:18;;;;;;;14.30;5.97;;;;;;;21.22;56.94;95716.23;1703350;83;21435;-55
2022/10/07 11:41:27;;;;;;;11.85;6.10;;;;;;;20.89;57.99;95717.89;1709260;83;21072;-49
2022/10/07 11:43:56;;;;;;;8.53;6.12;;;;;;;20.67;58.93;95711.97;1696095;83;21232;-54
2022/10/07 11:46:38;;;;;;;10.78;6.58;;;;;;;20.41;60.24;95704.89;1662005;83;21035;-51
2022/10/07 11:49:22;;;;;;;9.05;6.20;;;;;;;20.17;60.61;95702.16;1702027;82;21065;-53
2022/10/07 11:52:02;;;;;;;9.45;6.47;;;;;;;20.02;61.85;95707.00;1702533;83;21030;-52